sensor_id;sensor_type;location;lat;lon;timestamp;P1;durP1;ratioP1;P2;durP2;ratioP2
20181;SDS011;10250;50.756;6.172;2023-07-31T00:00:30;10.17;;;2.70;;
20181;SDS011;10250;50.756;6.172;2023-07-31T00:02:30;11.73;;;2.97;;
20181;SDS011;10250;50.756;6.172;2023-07-31T00:04:31;13.57;;;2.40;;
20181;SDS011;10250;50.756;6.172;2023-07-31T00:06:32;13.57;;;2.60;;
20181;SDS011;10250;50.756;6.172;2023-07-31T00:08:32;12.43;;;2.90;;
20181;SDS011;10250;50.756;6.172;2023-07-31T00:10:33;12.43;;;2.60;;
20181;SDS011;10250;50.756;6.172;2023-07-31T00:12:33;11.17;;;2.80;;
20181;SDS011;10250;50.756;6.172;2023-07-31T00:14:34;11.43;;;2.90;;
20181;SDS011;10250;50.756;6.172;2023-07-31T00:16:35;9.80;;;2.40;;
20181;SDS011;10250;50.756;6.172;2023-07-31T00:18:35;9.70;;;2.60;;
20181;SDS011;10250;50.756;6.172;2023-07-31T00:20:36;12.33;;;2.70;;
20181;SDS011;10250;50.756;6.172;2023-07-31T00:22:36;11.90;;;3.03;;
20181;SDS011;10250;50.756;6.172;2023-07-31T00:24:37;10.17;;;2.43;;
20181;SDS011;10250;50.756;6.172;2023-07-31T00:26:37;8.70;;;2.37;;
20181;SDS011;10250;50.756;6.172;2023-07-31T00:28:38;13.07;;;2.50;;
20181;SDS011;10250;50.756;6.172;2023-07-31T00:30:39;13.13;;;2.80;;
20181;SDS011;10250;50.756;6.172;2023-07-31T00:32:39;11.77;;;2.63;;
20181;SDS011;10250;50.756;6.172;2023-07-31T00:34:40;12.00;;;2.70;;
20181;SDS011;10250;50.756;6.172;2023-07-31T00:36:41;13.43;;;2.60;;
20181;SDS011;10250;50.756;6.172;2023-07-31T00:38:41;9.53;;;2.50;;
20181;SDS011;10250;50.756;6.172;2023-07-31T00:40:42;12.20;;;2.53;;
20181;SDS011;10250;50.756;6.172;2023-07-31T00:42:42;10.87;;;2.67;;
20181;SDS011;10250;50.756;6.172;2023-07-31T00:44:43;10.60;;;2.50;;
20181;SDS011;10250;50.756;6.172;2023-07-31T00:46:44;11.43;;;2.53;;
20181;SDS011;10250;50.756;6.172;2023-07-31T00:48:44;8.50;;;2.40;;
20181;SDS011;10250;50.756;6.172;2023-07-31T00:50:45;14.47;;;2.97;;
20181;SDS011;10250;50.756;6.172;2023-07-31T00:52:46;11.87;;;2.50;;
20181;SDS011;10250;50.756;6.172;2023-07-31T00:54:46;11.80;;;2.60;;
20181;SDS011;10250;50.756;6.172;2023-07-31T00:56:49;11.20;;;2.57;;
20181;SDS011;10250;50.756;6.172;2023-07-31T00:58:52;11.40;;;2.63;;
20181;SDS011;10250;50.756;6.172;2023-07-31T01:00:53;12.03;;;2.70;;
20181;SDS011;10250;50.756;6.172;2023-07-31T01:02:54;11.83;;;3.10;;
20181;SDS011;10250;50.756;6.172;2023-07-31T01:04:55;11.80;;;3.10;;
20181;SDS011;10250;50.756;6.172;2023-07-31T01:06:59;12.37;;;2.77;;
20181;SDS011;10250;50.756;6.172;2023-07-31T01:09:19;16.07;;;3.30;;
20181;SDS011;10250;50.756;6.172;2023-07-31T01:11:33;12.37;;;2.60;;
20181;SDS011;10250;50.756;6.172;2023-07-31T01:13:38;15.20;;;2.93;;
20181;SDS011;10250;50.756;6.172;2023-07-31T01:15:39;13.73;;;3.17;;
20181;SDS011;10250;50.756;6.172;2023-07-31T01:17:40;14.17;;;2.80;;
20181;SDS011;10250;50.756;6.172;2023-07-31T01:19:41;12.40;;;3.13;;
20181;SDS011;10250;50.756;6.172;2023-07-31T01:26:28;12.57;;;2.90;;
20181;SDS011;10250;50.756;6.172;2023-07-31T01:30:58;12.63;;;3.20;;
20181;SDS011;10250;50.756;6.172;2023-07-31T01:33:02;13.00;;;2.60;;
20181;SDS011;10250;50.756;6.172;2023-07-31T01:35:07;15.13;;;2.70;;
20181;SDS011;10250;50.756;6.172;2023-07-31T01:37:08;11.70;;;3.03;;
20181;SDS011;10250;50.756;6.172;2023-07-31T01:39:09;13.17;;;2.70;;
20181;SDS011;10250;50.756;6.172;2023-07-31T01:41:09;13.97;;;3.33;;
20181;SDS011;10250;50.756;6.172;2023-07-31T01:43:10;14.50;;;3.07;;
20181;SDS011;10250;50.756;6.172;2023-07-31T01:45:11;11.67;;;2.90;;
20181;SDS011;10250;50.756;6.172;2023-07-31T01:47:12;15.13;;;3.50;;
20181;SDS011;10250;50.756;6.172;2023-07-31T01:49:12;12.33;;;3.23;;
20181;SDS011;10250;50.756;6.172;2023-07-31T01:51:13;13.97;;;3.07;;
20181;SDS011;10250;50.756;6.172;2023-07-31T01:53:13;11.47;;;2.70;;
20181;SDS011;10250;50.756;6.172;2023-07-31T01:55:14;13.30;;;2.87;;
20181;SDS011;10250;50.756;6.172;2023-07-31T01:57:15;13.83;;;3.10;;
20181;SDS011;10250;50.756;6.172;2023-07-31T01:59:15;14.07;;;3.47;;
20181;SDS011;10250;50.756;6.172;2023-07-31T02:01:16;11.77;;;2.90;;
20181;SDS011;10250;50.756;6.172;2023-07-31T02:03:16;13.60;;;3.40;;
20181;SDS011;10250;50.756;6.172;2023-07-31T02:05:17;11.83;;;2.90;;
20181;SDS011;10250;50.756;6.172;2023-07-31T02:07:17;13.17;;;3.03;;
20181;SDS011;10250;50.756;6.172;2023-07-31T02:09:18;15.70;;;2.93;;
20181;SDS011;10250;50.756;6.172;2023-07-31T02:11:18;16.07;;;3.53;;
20181;SDS011;10250;50.756;6.172;2023-07-31T02:13:19;15.33;;;3.87;;
20181;SDS011;10250;50.756;6.172;2023-07-31T02:15:20;13.97;;;3.57;;
20181;SDS011;10250;50.756;6.172;2023-07-31T02:17:21;13.13;;;3.53;;
20181;SDS011;10250;50.756;6.172;2023-07-31T02:19:21;12.97;;;2.83;;
20181;SDS011;10250;50.756;6.172;2023-07-31T02:21:22;11.73;;;3.00;;
20181;SDS011;10250;50.756;6.172;2023-07-31T02:23:22;15.57;;;3.00;;
20181;SDS011;10250;50.756;6.172;2023-07-31T02:25:23;12.23;;;3.00;;
20181;SDS011;10250;50.756;6.172;2023-07-31T02:27:24;12.90;;;2.93;;
20181;SDS011;10250;50.756;6.172;2023-07-31T02:29:27;15.87;;;3.20;;
20181;SDS011;10250;50.756;6.172;2023-07-31T02:31:27;14.57;;;3.10;;
20181;SDS011;10250;50.756;6.172;2023-07-31T02:33:28;13.30;;;2.93;;
20181;SDS011;10250;50.756;6.172;2023-07-31T02:35:28;13.40;;;3.20;;
20181;SDS011;10250;50.756;6.172;2023-07-31T02:37:29;13.57;;;3.97;;
20181;SDS011;10250;50.756;6.172;2023-07-31T02:39:29;16.20;;;3.07;;
20181;SDS011;10250;50.756;6.172;2023-07-31T02:41:30;15.33;;;3.33;;
20181;SDS011;10250;50.756;6.172;2023-07-31T02:43:31;13.30;;;2.83;;
20181;SDS011;10250;50.756;6.172;2023-07-31T02:45:31;13.90;;;3.00;;
20181;SDS011;10250;50.756;6.172;2023-07-31T02:47:32;13.90;;;3.13;;
20181;SDS011;10250;50.756;6.172;2023-07-31T02:49:32;16.70;;;3.20;;
20181;SDS011;10250;50.756;6.172;2023-07-31T02:51:33;12.47;;;3.27;;
20181;SDS011;10250;50.756;6.172;2023-07-31T02:53:33;13.23;;;3.57;;
20181;SDS011;10250;50.756;6.172;2023-07-31T02:55:34;14.07;;;3.17;;
20181;SDS011;10250;50.756;6.172;2023-07-31T02:57:34;11.70;;;2.93;;
20181;SDS011;10250;50.756;6.172;2023-07-31T02:59:35;14.73;;;3.27;;
20181;SDS011;10250;50.756;6.172;2023-07-31T03:01:35;16.47;;;3.73;;
20181;SDS011;10250;50.756;6.172;2023-07-31T03:03:36;15.53;;;3.30;;
20181;SDS011;10250;50.756;6.172;2023-07-31T03:05:37;20.30;;;3.57;;
20181;SDS011;10250;50.756;6.172;2023-07-31T03:07:37;12.30;;;3.13;;
20181;SDS011;10250;50.756;6.172;2023-07-31T03:09:38;14.20;;;3.30;;
20181;SDS011;10250;50.756;6.172;2023-07-31T03:11:38;12.83;;;3.47;;
20181;SDS011;10250;50.756;6.172;2023-07-31T03:13:39;13.17;;;3.33;;
20181;SDS011;10250;50.756;6.172;2023-07-31T03:15:42;18.80;;;3.70;;
20181;SDS011;10250;50.756;6.172;2023-07-31T03:17:43;13.20;;;3.47;;
20181;SDS011;10250;50.756;6.172;2023-07-31T03:19:44;12.00;;;3.43;;
20181;SDS011;10250;50.756;6.172;2023-07-31T03:21:44;13.83;;;3.17;;
20181;SDS011;10250;50.756;6.172;2023-07-31T03:23:45;14.90;;;3.40;;
20181;SDS011;10250;50.756;6.172;2023-07-31T03:25:58;13.40;;;3.00;;
20181;SDS011;10250;50.756;6.172;2023-07-31T03:28:00;12.33;;;3.00;;
20181;SDS011;10250;50.756;6.172;2023-07-31T03:30:02;12.20;;;3.23;;
20181;SDS011;10250;50.756;6.172;2023-07-31T03:32:03;12.93;;;3.47;;
20181;SDS011;10250;50.756;6.172;2023-07-31T03:34:04;12.23;;;3.40;;
20181;SDS011;10250;50.756;6.172;2023-07-31T03:36:04;14.83;;;3.67;;
20181;SDS011;10250;50.756;6.172;2023-07-31T03:38:06;12.60;;;3.50;;
20181;SDS011;10250;50.756;6.172;2023-07-31T03:40:06;12.53;;;3.43;;
20181;SDS011;10250;50.756;6.172;2023-07-31T03:42:07;12.37;;;3.00;;
20181;SDS011;10250;50.756;6.172;2023-07-31T03:44:08;13.90;;;3.07;;
20181;SDS011;10250;50.756;6.172;2023-07-31T03:46:08;14.30;;;3.40;;
20181;SDS011;10250;50.756;6.172;2023-07-31T03:48:09;13.77;;;3.13;;
20181;SDS011;10250;50.756;6.172;2023-07-31T03:50:09;12.20;;;3.00;;
20181;SDS011;10250;50.756;6.172;2023-07-31T03:52:10;13.73;;;3.10;;
20181;SDS011;10250;50.756;6.172;2023-07-31T03:54:11;13.47;;;3.07;;
20181;SDS011;10250;50.756;6.172;2023-07-31T03:56:13;15.13;;;3.40;;
20181;SDS011;10250;50.756;6.172;2023-07-31T03:58:13;13.13;;;2.93;;
20181;SDS011;10250;50.756;6.172;2023-07-31T04:00:14;13.73;;;3.50;;
20181;SDS011;10250;50.756;6.172;2023-07-31T04:02:15;12.33;;;3.20;;
20181;SDS011;10250;50.756;6.172;2023-07-31T04:04:16;11.93;;;2.93;;
20181;SDS011;10250;50.756;6.172;2023-07-31T04:06:16;14.07;;;3.00;;
20181;SDS011;10250;50.756;6.172;2023-07-31T04:08:18;10.33;;;3.07;;
20181;SDS011;10250;50.756;6.172;2023-07-31T04:10:18;18.70;;;3.30;;
20181;SDS011;10250;50.756;6.172;2023-07-31T04:12:19;13.67;;;3.50;;
20181;SDS011;10250;50.756;6.172;2023-07-31T04:14:19;12.47;;;3.43;;
20181;SDS011;10250;50.756;6.172;2023-07-31T04:16:20;11.07;;;2.77;;
20181;SDS011;10250;50.756;6.172;2023-07-31T04:18:20;12.23;;;3.20;;
20181;SDS011;10250;50.756;6.172;2023-07-31T04:20:21;12.60;;;3.40;;
20181;SDS011;10250;50.756;6.172;2023-07-31T04:22:22;12.27;;;3.00;;
20181;SDS011;10250;50.756;6.172;2023-07-31T04:24:22;11.10;;;2.90;;
20181;SDS011;10250;50.756;6.172;2023-07-31T04:26:26;14.27;;;2.93;;
20181;SDS011;10250;50.756;6.172;2023-07-31T04:28:26;12.50;;;3.00;;
20181;SDS011;10250;50.756;6.172;2023-07-31T04:30:27;14.80;;;3.20;;
20181;SDS011;10250;50.756;6.172;2023-07-31T04:32:27;11.60;;;2.93;;
20181;SDS011;10250;50.756;6.172;2023-07-31T04:34:29;15.73;;;3.07;;
20181;SDS011;10250;50.756;6.172;2023-07-31T04:36:30;13.27;;;2.63;;
20181;SDS011;10250;50.756;6.172;2023-07-31T04:38:30;11.07;;;2.73;;
20181;SDS011;10250;50.756;6.172;2023-07-31T04:40:31;11.87;;;3.17;;
20181;SDS011;10250;50.756;6.172;2023-07-31T04:42:31;11.93;;;3.00;;
20181;SDS011;10250;50.756;6.172;2023-07-31T04:44:32;11.27;;;3.10;;
20181;SDS011;10250;50.756;6.172;2023-07-31T04:46:33;11.70;;;2.70;;
20181;SDS011;10250;50.756;6.172;2023-07-31T04:48:33;11.83;;;3.00;;
20181;SDS011;10250;50.756;6.172;2023-07-31T04:50:34;10.77;;;2.87;;
20181;SDS011;10250;50.756;6.172;2023-07-31T04:52:34;15.40;;;3.07;;
20181;SDS011;10250;50.756;6.172;2023-07-31T04:54:35;11.53;;;2.93;;
20181;SDS011;10250;50.756;6.172;2023-07-31T04:56:35;10.63;;;2.60;;
20181;SDS011;10250;50.756;6.172;2023-07-31T04:58:36;12.33;;;2.80;;
20181;SDS011;10250;50.756;6.172;2023-07-31T05:00:36;14.97;;;2.83;;
20181;SDS011;10250;50.756;6.172;2023-07-31T05:02:37;13.30;;;2.80;;
20181;SDS011;10250;50.756;6.172;2023-07-31T05:04:38;11.90;;;2.80;;
20181;SDS011;10250;50.756;6.172;2023-07-31T05:06:38;10.43;;;2.53;;
20181;SDS011;10250;50.756;6.172;2023-07-31T05:08:39;11.10;;;2.80;;
20181;SDS011;10250;50.756;6.172;2023-07-31T05:10:39;10.90;;;2.47;;
20181;SDS011;10250;50.756;6.172;2023-07-31T05:12:40;10.83;;;2.67;;
20181;SDS011;10250;50.756;6.172;2023-07-31T05:14:40;12.43;;;2.90;;
20181;SDS011;10250;50.756;6.172;2023-07-31T05:16:41;10.03;;;2.60;;
20181;SDS011;10250;50.756;6.172;2023-07-31T05:18:41;13.10;;;3.07;;
20181;SDS011;10250;50.756;6.172;2023-07-31T05:20:42;10.17;;;2.80;;
20181;SDS011;10250;50.756;6.172;2023-07-31T05:22:43;10.57;;;2.43;;
20181;SDS011;10250;50.756;6.172;2023-07-31T05:24:43;13.47;;;2.90;;
20181;SDS011;10250;50.756;6.172;2023-07-31T05:26:44;11.23;;;2.87;;
20181;SDS011;10250;50.756;6.172;2023-07-31T05:28:44;11.87;;;2.60;;
20181;SDS011;10250;50.756;6.172;2023-07-31T05:30:45;14.93;;;3.10;;
20181;SDS011;10250;50.756;6.172;2023-07-31T05:32:45;12.00;;;2.60;;
20181;SDS011;10250;50.756;6.172;2023-07-31T05:34:46;13.90;;;3.20;;
20181;SDS011;10250;50.756;6.172;2023-07-31T05:36:46;11.80;;;2.70;;
20181;SDS011;10250;50.756;6.172;2023-07-31T05:38:47;16.37;;;3.20;;
20181;SDS011;10250;50.756;6.172;2023-07-31T05:40:47;14.93;;;3.17;;
20181;SDS011;10250;50.756;6.172;2023-07-31T05:42:48;16.13;;;3.17;;
20181;SDS011;10250;50.756;6.172;2023-07-31T05:44:49;15.57;;;3.23;;
20181;SDS011;10250;50.756;6.172;2023-07-31T05:46:49;10.43;;;2.53;;
20181;SDS011;10250;50.756;6.172;2023-07-31T05:48:50;11.63;;;2.50;;
20181;SDS011;10250;50.756;6.172;2023-07-31T05:50:50;11.83;;;2.87;;
20181;SDS011;10250;50.756;6.172;2023-07-31T05:52:51;13.23;;;3.10;;
20181;SDS011;10250;50.756;6.172;2023-07-31T05:54:52;11.27;;;2.97;;
20181;SDS011;10250;50.756;6.172;2023-07-31T05:56:52;12.07;;;2.90;;
20181;SDS011;10250;50.756;6.172;2023-07-31T05:58:53;14.57;;;3.23;;
20181;SDS011;10250;50.756;6.172;2023-07-31T06:00:53;12.53;;;2.70;;
20181;SDS011;10250;50.756;6.172;2023-07-31T06:02:54;12.60;;;3.00;;
20181;SDS011;10250;50.756;6.172;2023-07-31T06:04:54;12.37;;;3.03;;
20181;SDS011;10250;50.756;6.172;2023-07-31T06:06:55;13.83;;;3.00;;
20181;SDS011;10250;50.756;6.172;2023-07-31T06:08:56;12.60;;;2.87;;
20181;SDS011;10250;50.756;6.172;2023-07-31T06:10:57;13.73;;;2.80;;
20181;SDS011;10250;50.756;6.172;2023-07-31T06:12:58;12.40;;;2.90;;
20181;SDS011;10250;50.756;6.172;2023-07-31T06:14:58;12.90;;;2.83;;
20181;SDS011;10250;50.756;6.172;2023-07-31T06:16:59;12.43;;;2.90;;
20181;SDS011;10250;50.756;6.172;2023-07-31T06:19:00;12.70;;;3.00;;
20181;SDS011;10250;50.756;6.172;2023-07-31T06:21:01;12.03;;;2.77;;
20181;SDS011;10250;50.756;6.172;2023-07-31T06:23:01;11.63;;;2.90;;
20181;SDS011;10250;50.756;6.172;2023-07-31T06:25:03;12.23;;;2.97;;
20181;SDS011;10250;50.756;6.172;2023-07-31T06:27:04;13.40;;;2.93;;
20181;SDS011;10250;50.756;6.172;2023-07-31T06:29:05;13.40;;;2.87;;
20181;SDS011;10250;50.756;6.172;2023-07-31T06:31:06;12.93;;;2.50;;
20181;SDS011;10250;50.756;6.172;2023-07-31T06:33:07;13.23;;;2.37;;
20181;SDS011;10250;50.756;6.172;2023-07-31T06:35:09;12.93;;;2.93;;
20181;SDS011;10250;50.756;6.172;2023-07-31T06:37:09;14.53;;;3.67;;
20181;SDS011;10250;50.756;6.172;2023-07-31T06:39:10;14.40;;;2.50;;
20181;SDS011;10250;50.756;6.172;2023-07-31T06:41:10;12.10;;;2.50;;
20181;SDS011;10250;50.756;6.172;2023-07-31T06:43:11;12.07;;;2.80;;
20181;SDS011;10250;50.756;6.172;2023-07-31T06:45:11;11.77;;;2.70;;
20181;SDS011;10250;50.756;6.172;2023-07-31T06:47:12;11.60;;;2.70;;
20181;SDS011;10250;50.756;6.172;2023-07-31T06:49:13;16.53;;;2.80;;
20181;SDS011;10250;50.756;6.172;2023-07-31T06:51:15;12.87;;;2.83;;
20181;SDS011;10250;50.756;6.172;2023-07-31T06:53:15;10.87;;;2.70;;
20181;SDS011;10250;50.756;6.172;2023-07-31T06:55:17;11.73;;;2.47;;
20181;SDS011;10250;50.756;6.172;2023-07-31T06:57:19;10.97;;;2.60;;
20181;SDS011;10250;50.756;6.172;2023-07-31T06:59:19;13.17;;;3.00;;
20181;SDS011;10250;50.756;6.172;2023-07-31T07:01:20;10.07;;;2.47;;
20181;SDS011;10250;50.756;6.172;2023-07-31T07:03:20;13.20;;;2.73;;
20181;SDS011;10250;50.756;6.172;2023-07-31T07:05:21;10.33;;;2.47;;
20181;SDS011;10250;50.756;6.172;2023-07-31T07:07:21;15.03;;;2.90;;
20181;SDS011;10250;50.756;6.172;2023-07-31T07:09:22;13.63;;;2.70;;
20181;SDS011;10250;50.756;6.172;2023-07-31T07:11:23;12.93;;;3.23;;
20181;SDS011;10250;50.756;6.172;2023-07-31T07:13:23;11.77;;;2.67;;
20181;SDS011;10250;50.756;6.172;2023-07-31T07:15:24;9.53;;;2.47;;
20181;SDS011;10250;50.756;6.172;2023-07-31T07:17:25;12.63;;;2.70;;
20181;SDS011;10250;50.756;6.172;2023-07-31T07:19:26;11.67;;;2.53;;
20181;SDS011;10250;50.756;6.172;2023-07-31T07:21:26;13.07;;;2.73;;
20181;SDS011;10250;50.756;6.172;2023-07-31T07:23:27;12.63;;;2.63;;
20181;SDS011;10250;50.756;6.172;2023-07-31T07:25:28;12.10;;;2.60;;
20181;SDS011;10250;50.756;6.172;2023-07-31T07:27:28;8.67;;;2.37;;
20181;SDS011;10250;50.756;6.172;2023-07-31T07:29:29;12.70;;;2.80;;
20181;SDS011;10250;50.756;6.172;2023-07-31T07:31:30;11.00;;;2.80;;
20181;SDS011;10250;50.756;6.172;2023-07-31T07:33:31;11.20;;;2.60;;
20181;SDS011;10250;50.756;6.172;2023-07-31T07:35:35;12.30;;;2.87;;
20181;SDS011;10250;50.756;6.172;2023-07-31T07:37:36;12.00;;;2.80;;
20181;SDS011;10250;50.756;6.172;2023-07-31T07:39:36;12.03;;;3.00;;
20181;SDS011;10250;50.756;6.172;2023-07-31T07:41:37;10.80;;;2.50;;
20181;SDS011;10250;50.756;6.172;2023-07-31T07:43:37;11.07;;;2.63;;
20181;SDS011;10250;50.756;6.172;2023-07-31T07:45:38;13.20;;;2.77;;
20181;SDS011;10250;50.756;6.172;2023-07-31T07:47:42;13.53;;;2.70;;
20181;SDS011;10250;50.756;6.172;2023-07-31T07:49:42;11.43;;;2.63;;
20181;SDS011;10250;50.756;6.172;2023-07-31T07:51:43;9.97;;;2.50;;
20181;SDS011;10250;50.756;6.172;2023-07-31T07:53:43;11.20;;;2.87;;
20181;SDS011;10250;50.756;6.172;2023-07-31T07:55:44;12.33;;;2.50;;
20181;SDS011;10250;50.756;6.172;2023-07-31T07:57:45;11.67;;;2.80;;
20181;SDS011;10250;50.756;6.172;2023-07-31T07:59:45;13.70;;;2.73;;
20181;SDS011;10250;50.756;6.172;2023-07-31T08:01:46;9.27;;;2.40;;
20181;SDS011;10250;50.756;6.172;2023-07-31T08:03:47;8.97;;;2.40;;
20181;SDS011;10250;50.756;6.172;2023-07-31T08:05:47;14.10;;;2.53;;
20181;SDS011;10250;50.756;6.172;2023-07-31T08:07:48;11.47;;;2.43;;
20181;SDS011;10250;50.756;6.172;2023-07-31T08:09:48;11.57;;;2.40;;
20181;SDS011;10250;50.756;6.172;2023-07-31T08:11:49;9.30;;;2.70;;
20181;SDS011;10250;50.756;6.172;2023-07-31T08:13:50;13.67;;;2.63;;
20181;SDS011;10250;50.756;6.172;2023-07-31T08:15:50;10.17;;;2.57;;
20181;SDS011;10250;50.756;6.172;2023-07-31T08:17:51;8.63;;;2.43;;
20181;SDS011;10250;50.756;6.172;2023-07-31T08:19:51;10.33;;;2.40;;
20181;SDS011;10250;50.756;6.172;2023-07-31T08:21:52;9.53;;;2.47;;
20181;SDS011;10250;50.756;6.172;2023-07-31T08:23:52;9.63;;;2.23;;
20181;SDS011;10250;50.756;6.172;2023-07-31T08:25:53;11.37;;;2.73;;
20181;SDS011;10250;50.756;6.172;2023-07-31T08:27:54;9.43;;;2.40;;
20181;SDS011;10250;50.756;6.172;2023-07-31T08:29:54;11.73;;;2.33;;
20181;SDS011;10250;50.756;6.172;2023-07-31T08:31:55;12.97;;;2.10;;
20181;SDS011;10250;50.756;6.172;2023-07-31T08:33:55;12.77;;;2.43;;
20181;SDS011;10250;50.756;6.172;2023-07-31T08:35:56;13.17;;;2.30;;
20181;SDS011;10250;50.756;6.172;2023-07-31T08:37:57;13.90;;;2.73;;
20181;SDS011;10250;50.756;6.172;2023-07-31T08:39:57;9.90;;;2.37;;
20181;SDS011;10250;50.756;6.172;2023-07-31T08:41:58;11.07;;;2.40;;
20181;SDS011;10250;50.756;6.172;2023-07-31T08:43:59;9.70;;;2.37;;
20181;SDS011;10250;50.756;6.172;2023-07-31T08:46:02;10.63;;;3.00;;
20181;SDS011;10250;50.756;6.172;2023-07-31T08:48:03;10.00;;;2.13;;
20181;SDS011;10250;50.756;6.172;2023-07-31T08:50:04;13.30;;;2.87;;
20181;SDS011;10250;50.756;6.172;2023-07-31T08:52:06;11.83;;;2.73;;
20181;SDS011;10250;50.756;6.172;2023-07-31T08:54:07;11.47;;;2.40;;
20181;SDS011;10250;50.756;6.172;2023-07-31T08:56:07;9.70;;;2.50;;
20181;SDS011;10250;50.756;6.172;2023-07-31T08:58:08;10.20;;;2.40;;
20181;SDS011;10250;50.756;6.172;2023-07-31T09:00:10;11.63;;;2.50;;
20181;SDS011;10250;50.756;6.172;2023-07-31T09:02:11;8.77;;;2.43;;
20181;SDS011;10250;50.756;6.172;2023-07-31T09:04:15;12.73;;;2.50;;
20181;SDS011;10250;50.756;6.172;2023-07-31T09:06:18;11.37;;;2.30;;
20181;SDS011;10250;50.756;6.172;2023-07-31T09:08:22;11.90;;;2.70;;
20181;SDS011;10250;50.756;6.172;2023-07-31T09:10:26;11.63;;;2.73;;
20181;SDS011;10250;50.756;6.172;2023-07-31T09:12:27;13.37;;;2.80;;
20181;SDS011;10250;50.756;6.172;2023-07-31T09:14:28;10.93;;;2.30;;
20181;SDS011;10250;50.756;6.172;2023-07-31T09:16:29;9.53;;;2.30;;
20181;SDS011;10250;50.756;6.172;2023-07-31T09:18:32;7.53;;;2.00;;
20181;SDS011;10250;50.756;6.172;2023-07-31T09:21:03;10.43;;;2.40;;
20181;SDS011;10250;50.756;6.172;2023-07-31T09:23:08;11.60;;;2.47;;
20181;SDS011;10250;50.756;6.172;2023-07-31T09:27:24;10.20;;;2.37;;
20181;SDS011;10250;50.756;6.172;2023-07-31T09:29:24;12.43;;;2.37;;
20181;SDS011;10250;50.756;6.172;2023-07-31T09:31:39;7.90;;;2.20;;
20181;SDS011;10250;50.756;6.172;2023-07-31T09:33:53;11.00;;;2.20;;
20181;SDS011;10250;50.756;6.172;2023-07-31T09:35:55;10.07;;;2.13;;
20181;SDS011;10250;50.756;6.172;2023-07-31T09:37:59;11.07;;;2.77;;
20181;SDS011;10250;50.756;6.172;2023-07-31T09:40:02;16.20;;;2.60;;
20181;SDS011;10250;50.756;6.172;2023-07-31T09:42:04;8.57;;;2.40;;
20181;SDS011;10250;50.756;6.172;2023-07-31T09:44:05;12.67;;;2.70;;
20181;SDS011;10250;50.756;6.172;2023-07-31T09:46:05;9.33;;;2.30;;
20181;SDS011;10250;50.756;6.172;2023-07-31T09:48:14;11.03;;;2.40;;
20181;SDS011;10250;50.756;6.172;2023-07-31T09:50:16;10.07;;;2.50;;
20181;SDS011;10250;50.756;6.172;2023-07-31T09:52:17;11.03;;;2.20;;
20181;SDS011;10250;50.756;6.172;2023-07-31T09:54:18;8.87;;;2.17;;
20181;SDS011;10250;50.756;6.172;2023-07-31T09:56:19;11.60;;;2.53;;
20181;SDS011;10250;50.756;6.172;2023-07-31T09:58:22;9.63;;;2.30;;
20181;SDS011;10250;50.756;6.172;2023-07-31T10:00:23;12.60;;;2.60;;
20181;SDS011;10250;50.756;6.172;2023-07-31T10:02:28;9.17;;;2.27;;
20181;SDS011;10250;50.756;6.172;2023-07-31T10:04:31;10.00;;;2.63;;
20181;SDS011;10250;50.756;6.172;2023-07-31T10:06:33;9.17;;;2.23;;
20181;SDS011;10250;50.756;6.172;2023-07-31T10:08:35;10.17;;;2.17;;
20181;SDS011;10250;50.756;6.172;2023-07-31T10:10:37;9.67;;;2.20;;
20181;SDS011;10250;50.756;6.172;2023-07-31T10:12:40;11.07;;;2.37;;
20181;SDS011;10250;50.756;6.172;2023-07-31T10:14:43;9.10;;;2.20;;
20181;SDS011;10250;50.756;6.172;2023-07-31T10:16:44;9.80;;;2.53;;
20181;SDS011;10250;50.756;6.172;2023-07-31T10:18:45;7.83;;;2.00;;
20181;SDS011;10250;50.756;6.172;2023-07-31T10:20:46;7.20;;;2.20;;
20181;SDS011;10250;50.756;6.172;2023-07-31T10:22:48;7.57;;;2.30;;
20181;SDS011;10250;50.756;6.172;2023-07-31T10:24:49;11.00;;;2.57;;
20181;SDS011;10250;50.756;6.172;2023-07-31T10:26:52;11.90;;;2.50;;
20181;SDS011;10250;50.756;6.172;2023-07-31T10:28:56;9.33;;;2.20;;
20181;SDS011;10250;50.756;6.172;2023-07-31T10:30:58;8.33;;;2.20;;
20181;SDS011;10250;50.756;6.172;2023-07-31T10:32:59;10.57;;;2.13;;
20181;SDS011;10250;50.756;6.172;2023-07-31T10:35:01;8.60;;;2.37;;
20181;SDS011;10250;50.756;6.172;2023-07-31T10:37:19;11.00;;;2.23;;
20181;SDS011;10250;50.756;6.172;2023-07-31T10:39:34;7.53;;;1.90;;
20181;SDS011;10250;50.756;6.172;2023-07-31T10:41:36;11.50;;;2.20;;
20181;SDS011;10250;50.756;6.172;2023-07-31T10:43:37;7.83;;;2.20;;
20181;SDS011;10250;50.756;6.172;2023-07-31T10:45:39;7.47;;;1.90;;
20181;SDS011;10250;50.756;6.172;2023-07-31T10:49:47;7.20;;;2.07;;
20181;SDS011;10250;50.756;6.172;2023-07-31T10:51:48;9.10;;;1.77;;
20181;SDS011;10250;50.756;6.172;2023-07-31T10:53:49;7.37;;;1.97;;
20181;SDS011;10250;50.756;6.172;2023-07-31T10:56:10;6.63;;;1.77;;
20181;SDS011;10250;50.756;6.172;2023-07-31T10:58:14;5.73;;;1.60;;
20181;SDS011;10250;50.756;6.172;2023-07-31T11:00:36;6.70;;;1.70;;
20181;SDS011;10250;50.756;6.172;2023-07-31T11:02:38;6.90;;;1.80;;
20181;SDS011;10250;50.756;6.172;2023-07-31T11:04:39;5.27;;;1.53;;
20181;SDS011;10250;50.756;6.172;2023-07-31T11:06:41;6.47;;;1.73;;
20181;SDS011;10250;50.756;6.172;2023-07-31T11:08:55;4.27;;;1.43;;
20181;SDS011;10250;50.756;6.172;2023-07-31T11:13:04;7.20;;;1.60;;
20181;SDS011;10250;50.756;6.172;2023-07-31T11:15:05;6.63;;;1.67;;
20181;SDS011;10250;50.756;6.172;2023-07-31T11:17:07;7.70;;;2.10;;
20181;SDS011;10250;50.756;6.172;2023-07-31T11:19:08;8.83;;;1.87;;
20181;SDS011;10250;50.756;6.172;2023-07-31T11:21:12;6.17;;;1.80;;
20181;SDS011;10250;50.756;6.172;2023-07-31T11:23:15;9.17;;;2.00;;
20181;SDS011;10250;50.756;6.172;2023-07-31T11:25:17;8.47;;;2.10;;
20181;SDS011;10250;50.756;6.172;2023-07-31T11:27:18;7.20;;;1.77;;
20181;SDS011;10250;50.756;6.172;2023-07-31T11:29:19;7.87;;;2.03;;
20181;SDS011;10250;50.756;6.172;2023-07-31T11:31:20;10.13;;;2.33;;
20181;SDS011;10250;50.756;6.172;2023-07-31T11:33:20;8.47;;;2.30;;
20181;SDS011;10250;50.756;6.172;2023-07-31T11:35:21;10.63;;;2.50;;
20181;SDS011;10250;50.756;6.172;2023-07-31T11:37:22;8.60;;;2.30;;
20181;SDS011;10250;50.756;6.172;2023-07-31T11:39:23;9.30;;;2.30;;
20181;SDS011;10250;50.756;6.172;2023-07-31T11:41:24;8.93;;;2.40;;
20181;SDS011;10250;50.756;6.172;2023-07-31T11:43:24;7.33;;;1.97;;
20181;SDS011;10250;50.756;6.172;2023-07-31T11:45:26;9.00;;;2.50;;
20181;SDS011;10250;50.756;6.172;2023-07-31T11:47:27;10.07;;;2.40;;
20181;SDS011;10250;50.756;6.172;2023-07-31T11:49:28;9.37;;;2.40;;
20181;SDS011;10250;50.756;6.172;2023-07-31T11:51:29;11.57;;;2.80;;
20181;SDS011;10250;50.756;6.172;2023-07-31T11:55:33;11.73;;;2.83;;
20181;SDS011;10250;50.756;6.172;2023-07-31T11:57:34;10.07;;;2.50;;
20181;SDS011;10250;50.756;6.172;2023-07-31T11:59:35;10.73;;;2.80;;
20181;SDS011;10250;50.756;6.172;2023-07-31T12:01:37;8.90;;;2.40;;
20181;SDS011;10250;50.756;6.172;2023-07-31T12:03:38;8.57;;;2.47;;
20181;SDS011;10250;50.756;6.172;2023-07-31T12:05:39;10.57;;;2.50;;
20181;SDS011;10250;50.756;6.172;2023-07-31T12:07:50;12.43;;;2.60;;
20181;SDS011;10250;50.756;6.172;2023-07-31T12:09:52;8.93;;;2.53;;
20181;SDS011;10250;50.756;6.172;2023-07-31T12:11:53;9.60;;;2.67;;
20181;SDS011;10250;50.756;6.172;2023-07-31T12:13:54;8.10;;;2.13;;
20181;SDS011;10250;50.756;6.172;2023-07-31T12:15:55;10.90;;;2.70;;
20181;SDS011;10250;50.756;6.172;2023-07-31T12:17:57;10.57;;;2.70;;
20181;SDS011;10250;50.756;6.172;2023-07-31T12:19:58;11.57;;;2.60;;